Time;durP1;ratioP1;P1;durP2;ratioP2;P2;SDS_P1;SDS_P2;PMS_P1;PMS_P2;Temp;Humidity;BMP_temperature;BMP_pressure;BME280_temperature;BME280_humidity;BME280_pressure;Samples;Min_cycle;Max_cycle;Signal;HPM_P1;HPM_P2
2022/01/16 00:00:24;;;;;;;19.08;17.55;;;4.20;65.40;;;;;;5093344;28;20031;-71
2022/01/16 00:05:27;;;;;;;17.52;16.55;;;4.20;65.20;;;;;;5094395;28;20055;-69
2022/01/16 00:07:53;;;;;;;23.25;20.85;;;4.20;64.50;;;;;;5093622;28;20115;-71
2022/01/16 00:10:20;;;;;;;19.67;18.17;;;4.10;64.40;;;;;;5094796;28;20039;-71
2022/01/16 00:12:49;;;;;;;20.17;18.92;;;4.10;64.90;;;;;;5094650;28;20093;-71
2022/01/16 00:15:20;;;;;;;18.08;16.77;;;4.10;64.30;;;;;;5093173;28;20038;-70
2022/01/16 00:17:59;;;;;;;20.85;18.52;;;4.10;64.30;;;;;;5094473;28;20056;-69
2022/01/16 00:20:26;;;;;;;16.83;15.80;;;4.10;64.20;;;;;;5093283;28;20109;-70
2022/01/16 00:22:52;;;;;;;22.25;20.25;;;4.10;64.10;;;;;;5094308;28;20459;-69
2022/01/16 00:25:18;;;;;;;19.35;17.83;;;4.10;64.20;;;;;;5094386;28;20467;-68
2022/01/16 00:27:44;;;;;;;19.75;18.25;;;4.10;63.90;;;;;;5093004;28;20547;-69
2022/01/16 00:30:11;;;;;;;13.80;13.20;;;4.10;64.20;;;;;;5093319;28;20028;-71
2022/01/16 00:32:37;;;;;;;17.92;16.52;;;4.10;64.10;;;;;;5092736;28;20020;-69
2022/01/16 00:35:04;;;;;;;20.80;19.20;;;4.10;63.80;;;;;;5094302;28;20047;-66
2022/01/16 00:37:30;;;;;;;28.05;21.67;;;4.10;63.80;;;;;;5094246;28;20020;-69
2022/01/16 00:39:56;;;;;;;17.95;16.30;;;4.10;63.90;;;;;;5089471;28;20028;-68
2022/01/16 00:42:21;;;;;;;19.33;17.88;;;4.10;63.80;;;;;;5081225;28;20082;-71
2022/01/16 00:44:47;;;;;;;18.40;17.05;;;4.20;64.00;;;;;;5081606;28;20032;-71
2022/01/16 00:47:13;;;;;;;20.23;18.73;;;4.20;63.80;;;;;;5082072;28;20024;-71
2022/01/16 00:49:39;;;;;;;17.45;16.02;;;4.20;63.80;;;;;;5081598;28;20024;-66
2022/01/16 00:52:09;;;;;;;12.48;11.75;;;4.20;63.80;;;;;;5080923;28;20043;-67
2022/01/16 00:54:36;;;;;;;15.60;14.27;;;4.20;63.70;;;;;;5082113;28;20413;-67
2022/01/16 00:57:03;;;;;;;18.58;17.08;;;4.10;63.50;;;;;;5082166;28;20021;-69
2022/01/16 00:59:28;;;;;;;23.10;20.83;;;4.10;63.60;;;;;;5080024;28;20386;-65
2022/01/16 01:01:54;;;;;;;15.60;14.75;;;4.10;63.90;;;;;;5083393;28;20020;-68
2022/01/16 01:04:20;;;;;;;16.55;15.45;;;4.10;64.10;;;;;;5081824;28;20023;-68
2022/01/16 01:06:50;;;;;;;23.10;20.95;;;4.20;63.90;;;;;;5081413;28;20700;-69
2022/01/16 01:09:17;;;;;;;14.68;13.77;;;4.20;63.70;;;;;;5083208;28;20020;-70
2022/01/16 01:11:45;;;;;;;19.45;18.08;;;4.20;63.70;;;;;;5080667;28;20027;-72
2022/01/16 01:17:00;;;;;;;18.55;16.70;;;4.20;63.40;;;;;;5090402;28;20032;-69
2022/01/16 01:19:35;;;;;;;23.52;21.15;;;4.10;63.20;;;;;;5093632;28;20028;-69
2022/01/16 01:22:04;;;;;;;17.52;16.33;;;4.20;63.60;;;;;;5093532;28;20031;-72
2022/01/16 01:24:30;;;;;;;16.92;15.82;;;4.20;63.60;;;;;;5091933;28;20031;-70
2022/01/16 01:27:06;;;;;;;14.68;13.95;;;4.20;63.70;;;;;;5093396;28;20036;-70
2022/01/16 01:29:32;;;;;;;20.10;18.58;;;4.20;63.40;;;;;;5092090;28;20020;-70
2022/01/16 01:31:59;;;;;;;15.13;14.38;;;4.20;63.60;;;;;;5093183;28;20035;-70
2022/01/16 01:34:24;;;;;;;16.88;15.50;;;4.20;63.30;;;;;;5093236;28;20470;-72
2022/01/16 01:36:51;;;;;;;15.55;14.65;;;4.20;63.10;;;;;;5093091;28;20035;-71
2022/01/16 01:39:18;;;;;;;15.98;14.57;;;4.20;63.50;;;;;;5093014;28;20024;-71
2022/01/16 01:41:46;;;;;;;19.88;18.38;;;4.20;63.10;;;;;;5092708;28;20032;-72
2022/01/16 01:52:25;;;;;;;17.35;16.45;;;4.20;63.40;;;;;;5093097;28;20035;-70
2022/01/16 01:54:52;;;;;;;16.98;16.08;;;4.20;63.60;;;;;;5092960;28;20020;-67
2022/01/16 01:57:17;;;;;;;16.85;15.75;;;4.20;63.40;;;;;;5092917;28;20105;-70
2022/01/16 01:59:43;;;;;;;15.05;14.25;;;4.20;63.30;;;;;;5092701;28;20061;-69
2022/01/16 02:02:09;;;;;;;14.40;13.52;;;4.10;63.00;;;;;;5092659;28;20025;-70
2022/01/16 02:04:35;;;;;;;19.63;18.42;;;4.10;63.00;;;;;;5092440;28;20024;-71
2022/01/16 02:07:01;;;;;;;18.27;17.08;;;4.10;63.10;;;;;;5092838;28;20048;-71
2022/01/16 02:09:27;;;;;;;15.88;15.05;;;4.10;63.00;;;;;;5092600;28;20024;-72
2022/01/16 02:11:53;;;;;;;16.67;15.75;;;4.10;63.10;;;;;;5092788;28;20035;-69
2022/01/16 02:36:01;;;;;;;16.58;15.43;;;4.10;62.80;;;;;;5092513;28;20150;-71
2022/01/16 02:38:27;;;;;;;15.80;14.82;;;4.10;62.50;;;;;;5092583;28;20082;-71
2022/01/16 02:41:02;;;;;;;20.10;18.35;;;4.10;62.50;;;;;;5092432;28;20027;-70
2022/01/16 02:43:33;;;;;;;14.60;13.63;;;4.20;62.50;;;;;;5092279;28;20050;-69
2022/01/16 02:48:48;;;;;;;14.02;13.40;;;4.20;62.40;;;;;;5092475;28;20382;-70
2022/01/16 02:51:32;;;;;;;14.13;13.40;;;4.30;62.20;;;;;;5092540;28;20119;-70
2022/01/16 02:53:58;;;;;;;13.77;13.18;;;4.20;62.00;;;;;;5096157;28;20441;-66
2022/01/16 02:56:24;;;;;;;13.25;12.73;;;4.30;62.20;;;;;;5094810;28;20039;-69
2022/01/16 02:58:51;;;;;;;14.85;14.05;;;4.40;62.20;;;;;;5096091;28;20104;-71
2022/01/16 03:01:17;;;;;;;15.75;14.70;;;4.30;61.60;;;;;;5094950;28;20028;-70
2022/01/16 03:03:43;;;;;;;15.63;14.68;;;4.30;61.40;;;;;;5096084;28;20170;-69
2022/01/16 03:06:09;;;;;;;13.63;12.80;;;4.30;61.50;;;;;;5094479;28;20072;-67
2022/01/16 03:08:35;;;;;;;12.70;12.05;;;4.30;61.80;;;;;;5095865;28;20028;-70
2022/01/16 03:13:32;;;;;;;13.52;12.88;;;4.30;62.00;;;;;;5095957;28;20036;-70
2022/01/16 03:15:58;;;;;;;13.63;12.75;;;4.30;61.80;;;;;;5095782;28;20089;-70
2022/01/16 03:23:34;;;;;;;23.33;21.05;;;4.20;62.10;;;;;;5095646;28;20070;-69
2022/01/16 03:26:00;;;;;;;18.55;17.00;;;4.20;62.20;;;;;;5095468;28;20398;-69
2022/01/16 03:28:27;;;;;;;17.83;16.55;;;4.30;62.40;;;;;;5094248;28;20020;-70
2022/01/16 03:30:54;;;;;;;15.07;14.25;;;4.30;62.40;;;;;;5095543;28;20020;-70
2022/01/16 03:33:20;;;;;;;15.75;14.85;;;4.30;62.20;;;;;;5095424;28;20032;-70
2022/01/16 03:35:47;;;;;;;19.58;17.70;;;4.40;62.30;;;;;;5095297;28;20060;-70
2022/01/16 03:38:14;;;;;;;16.83;15.55;;;4.40;62.40;;;;;;5095705;28;20028;-71
2022/01/16 03:40:39;;;;;;;16.05;14.88;;;4.40;62.40;;;;;;5094113;28;20069;-70
2022/01/16 03:43:13;;;;;;;17.40;16.45;;;4.40;62.40;;;;;;5094102;28;20028;-71
2022/01/16 03:45:45;;;;;;;16.42;15.40;;;4.50;62.50;;;;;;5095205;28;20028;-71
2022/01/16 03:48:12;;;;;;;17.55;16.30;;;4.50;62.20;;;;;;5095473;28;20035;-70
2022/01/16 03:50:38;;;;;;;16.75;15.70;;;4.50;62.00;;;;;;5093723;28;20039;-70
2022/01/16 03:53:05;;;;;;;18.40;16.40;;;4.40;61.70;;;;;;5095420;28;20360;-69
2022/01/16 03:55:32;;;;;;;23.25;20.92;;;4.40;62.00;;;;;;5093835;28;20119;-71
2022/01/16 03:57:58;;;;;;;22.85;20.70;;;4.40;61.90;;;;;;5094918;28;20497;-70
2022/01/16 04:00:24;;;;;;;17.25;15.88;;;4.30;61.80;;;;;;5093638;28;20034;-71
2022/01/16 04:02:49;;;;;;;18.67;17.30;;;4.40;61.80;;;;;;5094589;28;20025;-71
2022/01/16 04:05:15;;;;;;;19.20;17.17;;;4.30;61.60;;;;;;5094833;28;20060;-69
2022/01/16 04:07:41;;;;;;;17.63;16.25;;;4.30;61.80;;;;;;5094911;28;20024;-70
2022/01/16 04:10:08;;;;;;;18.67;17.52;;;4.30;61.90;;;;;;5094721;28;20028;-70
2022/01/16 04:12:37;;;;;;;15.35;14.43;;;4.30;61.80;;;;;;5093494;28;20024;-70
2022/01/16 04:17:28;;;;;;;17.65;16.27;;;4.40;61.70;;;;;;5094357;28;20063;-70
2022/01/16 04:19:54;;;;;;;15.88;14.80;;;4.30;61.40;;;;;;5094739;28;20082;-69
2022/01/16 04:22:20;;;;;;;14.85;13.88;;;4.30;61.80;;;;;;5094698;28;20382;-70
2022/01/16 04:24:46;;;;;;;17.17;16.02;;;4.30;61.50;;;;;;5094497;28;20020;-70
2022/01/16 04:27:12;;;;;;;18.73;16.05;;;4.30;61.60;;;;;;5094397;28;20458;-71
2022/01/16 04:29:39;;;;;;;15.82;14.73;;;4.30;61.40;;;;;;5094315;28;20115;-71
2022/01/16 04:32:06;;;;;;;15.75;14.75;;;4.30;61.10;;;;;;5092869;28;20028;-71
2022/01/16 04:34:31;;;;;;;16.40;15.32;;;4.20;61.00;;;;;;5093032;28;20024;-71
2022/01/16 04:36:57;;;;;;;18.50;17.08;;;4.20;61.00;;;;;;5085565;28;20387;-69
2022/01/16 04:39:31;;;;;;;16.75;15.48;;;4.20;61.20;;;;;;5089903;28;20081;-71
2022/01/16 04:44:42;;;;;;;19.75;18.48;;;4.30;61.40;;;;;;5081127;28;20383;-70
2022/01/16 04:47:08;;;;;;;19.05;17.17;;;4.30;61.40;;;;;;5073783;28;20045;-70
2022/01/16 04:49:33;;;;;;;16.95;15.57;;;4.30;61.30;;;;;;5073745;28;20025;-70
2022/01/16 04:51:59;;;;;;;14.02;13.35;;;4.20;60.90;;;;;;5072394;28;20028;-72
2022/01/16 04:54:25;;;;;;;16.02;14.82;;;4.30;61.30;;;;;;5072347;28;20047;-70
2022/01/16 04:56:51;;;;;;;17.10;15.90;;;4.30;61.40;;;;;;5073455;28;20039;-70
2022/01/16 04:59:17;;;;;;;15.13;14.02;;;4.40;61.40;;;;;;5073716;28;20093;-70
2022/01/16 05:01:43;;;;;;;16.13;15.07;;;4.40;61.30;;;;;;5073562;28;20021;-71
2022/01/16 05:04:09;;;;;;;13.73;13.00;;;4.30;61.20;;;;;;5073305;28;20024;-71
2022/01/16 05:06:35;;;;;;;17.58;16.30;;;4.30;61.20;;;;;;5071469;28;20414;-72
2022/01/16 05:09:01;;;;;;;14.75;13.73;;;4.30;61.10;;;;;;5073282;28;20032;-70
2022/01/16 05:11:27;;;;;;;16.27;15.07;;;4.20;60.90;;;;;;5071905;28;20459;-70
2022/01/16 05:16:40;;;;;;;12.95;12.35;;;4.20;61.20;;;;;;5072859;28;20036;-70
2022/01/16 05:19:13;;;;;;;17.40;16.38;;;4.20;61.30;;;;;;5073247;28;20032;-71
2022/01/16 05:21:42;;;;;;;13.27;12.70;;;4.30;61.40;;;;;;5071792;28;20028;-71
2022/01/16 05:24:10;;;;;;;14.40;13.70;;;4.30;61.30;;;;;;5072986;28;20028;-72
2022/01/16 05:26:41;;;;;;;16.13;15.40;;;4.30;61.40;;;;;;5073094;28;20032;-71
2022/01/16 05:29:08;;;;;;;13.77;12.85;;;4.30;61.50;;;;;;5071842;28;20029;-70
2022/01/16 05:31:34;;;;;;;16.40;15.30;;;4.40;61.60;;;;;;5072990;28;20048;-69
2022/01/16 05:34:00;;;;;;;15.75;14.90;;;4.30;61.40;;;;;;5072878;28;20064;-71
2022/01/16 05:36:26;;;;;;;14.32;13.50;;;4.30;61.50;;;;;;5071434;28;20025;-71
2022/01/16 05:38:53;;;;;;;17.17;16.08;;;4.30;61.60;;;;;;5072591;28;20093;-71
2022/01/16 05:41:19;;;;;;;17.02;15.63;;;4.30;61.70;;;;;;5072873;28;20070;-70
2022/01/16 05:43:46;;;;;;;18.10;16.75;;;4.20;61.60;;;;;;5071450;28;20024;-68
2022/01/16 05:46:13;;;;;;;17.58;16.48;;;4.20;61.70;;;;;;5071442;28;20032;-69
2022/01/16 05:48:39;;;;;;;18.42;17.08;;;4.20;61.90;;;;;;5072587;28;20034;-71
2022/01/16 05:51:04;;;;;;;17.58;16.67;;;4.30;61.80;;;;;;5071302;28;20204;-69
2022/01/16 05:53:30;;;;;;;19.27;17.85;;;4.30;61.60;;;;;;5071200;28;20035;-70
2022/01/16 05:55:56;;;;;;;14.77;13.70;;;4.30;61.40;;;;;;5072702;28;20032;-69
2022/01/16 05:58:21;;;;;;;15.65;14.85;;;4.20;61.10;;;;;;5074299;28;20032;-72
2022/01/16 06:00:48;;;;;;;16.88;15.88;;;4.20;61.00;;;;;;5084397;28;20047;-74
2022/01/16 06:03:14;;;;;;;20.52;19.25;;;4.20;61.20;;;;;;5078590;28;20027;-73
2022/01/16 06:05:40;;;;;;;18.80;17.65;;;4.20;61.30;;;;;;5081886;28;20048;-74
2022/01/16 06:08:13;;;;;;;17.33;16.23;;;4.20;61.20;;;;;;5082875;28;20483;-75
2022/01/16 06:10:39;;;;;;;18.17;17.10;;;4.30;61.30;;;;;;5082524;28;20017;-74
2022/01/16 06:13:05;;;;;;;17.13;16.13;;;4.30;61.30;;;;;;5085380;28;20038;-75
2022/01/16 06:15:32;;;;;;;15.57;14.75;;;4.40;61.50;;;;;;5082653;28;20036;-72
2022/01/16 06:17:58;;;;;;;18.13;16.98;;;4.30;61.30;;;;;;5083941;28;20063;-74
2022/01/16 06:20:24;;;;;;;16.10;15.25;;;4.40;61.40;;;;;;5079520;28;20467;-72
2022/01/16 06:22:50;;;;;;;16.00;15.07;;;4.30;61.30;;;;;;5082746;28;20025;-71
2022/01/16 06:25:15;;;;;;;16.13;14.90;;;4.30;61.40;;;;;;5082670;28;20047;-72
2022/01/16 06:27:42;;;;;;;15.02;14.27;;;4.20;61.50;;;;;;5082485;28;20417;-75
2022/01/16 06:30:10;;;;;;;15.52;14.63;;;4.30;61.60;;;;;;5086640;28;20390;-78
2022/01/16 06:32:36;;;;;;;14.82;14.02;;;4.20;61.50;;;;;;5084331;28;20024;-76
2022/01/16 06:35:04;;;;;;;16.88;15.93;;;4.20;61.60;;;;;;5084638;28;20028;-76
2022/01/16 06:37:29;;;;;;;19.08;17.65;;;4.30;61.80;;;;;;5085830;28;20059;-75
2022/01/16 06:39:55;;;;;;;16.63;15.52;;;4.20;61.70;;;;;;5094545;28;20048;-75
2022/01/16 06:42:21;;;;;;;15.43;14.55;;;4.30;61.80;;;;;;5097345;28;20035;-75
2022/01/16 06:44:46;;;;;;;16.55;15.48;;;4.20;61.70;;;;;;5095917;28;20141;-75
2022/01/16 06:47:12;;;;;;;13.63;13.02;;;4.30;61.70;;;;;;5097059;28;20039;-73
2022/01/16 06:49:38;;;;;;;16.70;15.65;;;4.30;61.60;;;;;;5095646;28;20462;-73
2022/01/16 06:52:04;;;;;;;19.10;17.48;;;4.20;61.40;;;;;;5096911;28;20020;-72
2022/01/16 06:54:30;;;;;;;18.77;16.92;;;4.20;61.30;;;;;;5096952;28;20047;-72
2022/01/16 06:56:56;;;;;;;21.92;20.27;;;4.20;61.30;;;;;;5096969;28;20475;-72
2022/01/16 06:59:21;;;;;;;18.15;16.83;;;4.10;61.30;;;;;;5095558;28;20028;-76
2022/01/16 07:01:47;;;;;;;18.55;17.50;;;4.10;61.40;;;;;;5090005;28;20025;-74
2022/01/16 07:04:13;;;;;;;18.42;16.77;;;4.20;61.50;;;;;;5084996;28;20028;-72
2022/01/16 07:06:38;;;;;;;20.42;18.50;;;4.10;61.10;;;;;;5092971;28;20101;-73
2022/01/16 07:09:04;;;;;;;18.75;17.30;;;4.10;61.20;;;;;;5095700;28;20034;-72
2022/01/16 07:11:29;;;;;;;18.38;15.55;;;4.20;61.40;;;;;;5091219;28;20119;-73
2022/01/16 07:13:55;;;;;;;25.20;20.00;;;4.20;61.30;;;;;;5085840;28;20063;-71
2022/01/16 07:16:21;;;;;;;16.77;15.38;;;4.20;61.30;;;;;;5083980;28;20040;-74
2022/01/16 07:18:47;;;;;;;19.80;17.83;;;4.20;61.10;;;;;;5084572;28;20028;-73
2022/01/16 07:21:14;;;;;;;20.65;19.25;;;4.20;61.30;;;;;;5085045;28;20021;-76
2022/01/16 07:23:53;;;;;;;20.85;19.40;;;4.30;61.20;;;;;;5082934;28;20016;-73
2022/01/16 07:26:19;;;;;;;25.70;22.17;;;4.30;61.30;;;;;;5083264;28;20040;-71
2022/01/16 07:28:45;;;;;;;26.13;23.30;;;4.40;61.40;;;;;;5080148;28;20016;-78
2022/01/16 07:31:12;;;;;;;18.80;17.35;;;4.50;61.00;;;;;;5074039;28;20490;-72
2022/01/16 07:33:38;;;;;;;21.63;19.52;;;4.50;61.00;;;;;;5085431;28;20025;-76
2022/01/16 07:36:04;;;;;;;25.38;21.35;;;4.40;61.00;;;;;;5086431;28;20028;-74
2022/01/16 07:38:31;;;;;;;35.20;26.17;;;4.40;61.00;;;;;;5085449;28;20490;-72
2022/01/16 07:40:56;;;;;;;25.50;22.40;;;4.50;61.30;;;;;;5084565;28;20028;-72
2022/01/16 07:43:23;;;;;;;23.98;21.83;;;4.50;61.20;;;;;;5085471;28;20020;-73
2022/01/16 07:45:48;;;;;;;40.13;29.50;;;4.60;61.00;;;;;;5083564;28;20471;-72
2022/01/16 07:48:14;;;;;;;35.08;23.33;;;4.60;61.80;;;;;;5083306;28;20027;-73
2022/01/16 07:50:40;;;;;;;24.17;22.15;;;4.50;61.00;;;;;;5085478;28;20059;-75
2022/01/16 07:53:06;;;;;;;26.38;23.50;;;4.60;61.20;;;;;;5083469;28;20016;-71
2022/01/16 07:55:32;;;;;;;28.15;25.40;;;4.60;61.30;;;;;;5084573;28;20073;-72
2022/01/16 07:57:58;;;;;;;19.40;17.65;;;4.60;61.20;;;;;;5084588;28;20111;-71
2022/01/16 08:00:25;;;;;;;35.45;23.48;;;4.70;61.30;;;;;;5082199;28;20028;-68
2022/01/16 08:02:51;;;;;;;15.95;14.52;;;4.80;61.30;;;;;;5080713;28;20055;-68
2022/01/16 08:05:18;;;;;;;15.98;14.82;;;4.80;61.10;;;;;;5081640;28;20052;-65
2022/01/16 08:07:44;;;;;;;23.98;21.58;;;4.80;61.00;;;;;;5074960;28;20533;-65
2022/01/16 08:10:10;;;;;;;21.25;19.58;;;4.80;61.10;;;;;;5082543;28;20054;-68
2022/01/16 08:12:37;;;;;;;19.80;18.23;;;4.90;61.10;;;;;;5081874;28;20486;-67
2022/01/16 08:15:05;;;;;;;30.13;23.08;;;4.90;61.20;;;;;;5075371;28;20020;-67
2022/01/16 08:17:31;;;;;;;33.85;23.27;;;4.90;61.30;;;;;;5075447;28;20153;-67
2022/01/16 08:19:56;;;;;;;25.80;21.65;;;5.00;61.40;;;;;;5075271;28;20495;-68
2022/01/16 12:59:30;;;;;;;20.55;19.58;;;2.50;61.10;;;;;;5109393;27;20414;-58
2022/01/16 13:01:58;;;;;;;20.77;19.90;;;2.50;62.80;;;;;;5100989;28;20028;-58
2022/01/16 13:04:26;;;;;;;19.77;18.95;;;2.60;63.80;;;;;;5109769;28;20473;-57
2022/01/16 13:06:56;;;;;;;24.58;22.42;;;2.90;64.20;;;;;;5108566;28;20020;-59
2022/01/16 13:09:23;;;;;;;19.10;17.73;;;3.10;64.30;;;;;;5110018;28;20028;-59
2022/01/16 13:11:51;;;;;;;19.77;18.63;;;3.30;64.70;;;;;;5108631;28;20028;-59
2022/01/16 13:14:25;;;;;;;18.85;17.55;;;3.50;63.90;;;;;;5110114;28;20042;-59
2022/01/16 13:16:57;;;;;;;21.08;19.73;;;3.60;63.20;;;;;;5110682;28;20024;-59
2022/01/16 13:19:39;;;;;;;17.55;16.55;;;3.60;62.70;;;;;;5111024;28;20073;-58
2022/01/16 13:22:13;;;;;;;16.65;15.57;;;3.70;63.00;;;;;;5109715;28;20024;-59
2022/01/16 13:24:47;;;;;;;18.48;17.25;;;3.90;63.00;;;;;;5108287;28;20110;-59
2022/01/16 13:27:19;;;;;;;19.27;17.92;;;4.00;62.80;;;;;;5109163;28;20532;-59
2022/01/16 13:29:54;;;;;;;19.17;17.88;;;4.00;62.40;;;;;;5108060;28;20028;-59
2022/01/16 13:32:22;;;;;;;18.90;17.85;;;3.90;61.80;;;;;;5110031;28;20420;-60
2022/01/16 13:34:50;;;;;;;16.10;15.15;;;3.90;61.80;;;;;;5109143;28;20501;-60
2022/01/16 13:37:19;;;;;;;17.40;16.35;;;3.90;61.50;;;;;;5109159;28;20020;-60
2022/01/16 13:39:47;;;;;;;16.75;15.85;;;3.90;61.20;;;;;;5105296;28;20027;-60
2022/01/16 13:42:38;;;;;;;14.60;13.70;;;3.80;61.00;;;;;;5103872;28;20035;-60
2022/01/16 13:45:17;;;;;;;17.33;16.23;;;3.80;61.00;;;;;;5080442;28;20451;-60
2022/01/16 13:48:10;;;;;;;16.60;15.40;;;3.90;61.30;;;;;;5077500;28;20095;-60
2022/01/16 13:50:49;;;;;;;17.75;16.75;;;3.90;61.00;;;;;;5077181;28;20039;-59
2022/01/16 13:53:39;;;;;;;19.08;17.30;;;3.90;60.70;;;;;;5078603;28;20025;-61
2022/01/16 13:56:06;;;;;;;17.77;16.60;;;3.90;60.70;;;;;;5079535;28;20216;-59
2022/01/16 13:58:54;;;;;;;21.20;19.70;;;3.90;60.20;;;;;;5077735;28;20435;-60
2022/01/16 14:01:26;;;;;;;19.17;17.25;;;3.90;60.60;;;;;;5068659;28;20442;-60
2022/01/16 14:04:00;;;;;;;17.80;16.25;;;4.00;60.60;;;;;;5068399;28;20035;-60
2022/01/16 14:06:32;;;;;;;16.60;15.38;;;4.00;60.30;;;;;;5068329;28;20116;-59
2022/01/16 14:09:07;;;;;;;19.02;17.73;;;3.90;59.90;;;;;;5066368;28;20136;-60
2022/01/16 14:11:43;;;;;;;21.08;19.45;;;3.90;60.10;;;;;;5055045;28;20029;-60
2022/01/16 14:14:10;;;;;;;19.90;18.80;;;4.00;60.30;;;;;;5056413;28;20025;-60
2022/01/16 14:16:50;;;;;;;21.27;19.85;;;4.00;60.40;;;;;;5056233;28;20479;-60
2022/01/16 14:19:22;;;;;;;18.33;17.20;;;4.10;61.20;;;;;;5055054;28;20037;-60
2022/01/16 14:22:10;;;;;;;17.15;16.00;;;4.20;60.50;;;;;;5054758;28;20087;-59
2022/01/16 14:24:38;;;;;;;20.05;18.60;;;4.20;60.50;;;;;;5056217;28;20456;-59
2022/01/16 14:27:10;;;;;;;19.98;18.52;;;4.20;60.40;;;;;;5056255;28;20053;-59
2022/01/16 14:29:39;;;;;;;17.67;16.35;;;4.20;60.50;;;;;;5055762;28;20029;-59
2022/01/16 14:32:06;;;;;;;18.38;16.88;;;4.30;60.40;;;;;;5054479;28;20029;-60
2022/01/16 14:34:31;;;;;;;19.13;17.83;;;4.30;60.30;;;;;;5056149;28;20067;-60
2022/01/16 14:36:57;;;;;;;23.10;21.13;;;4.30;60.20;;;;;;5058379;28;20025;-62
2022/01/16 14:39:23;;;;;;;18.00;16.80;;;4.30;60.40;;;;;;5064431;28;20047;-60
2022/01/16 14:41:51;;;;;;;19.00;17.80;;;4.30;60.30;;;;;;5056738;28;20112;-60
2022/01/16 14:44:18;;;;;;;18.77;17.02;;;4.30;60.20;;;;;;5055152;28;20048;-60
2022/01/16 14:46:46;;;;;;;21.58;19.70;;;4.20;60.30;;;;;;5055235;28;20060;-60
2022/01/16 14:49:12;;;;;;;18.60;17.20;;;4.30;60.40;;;;;;5055340;28;20460;-60
2022/01/16 14:51:38;;;;;;;21.85;20.20;;;4.30;60.20;;;;;;5055437;28;20029;-60
2022/01/16 14:54:05;;;;;;;21.40;19.70;;;4.20;60.20;;;;;;5055324;28;20432;-60
2022/01/16 14:56:31;;;;;;;21.40;19.33;;;4.20;60.30;;;;;;5055570;28;20464;-60
2022/01/16 14:58:57;;;;;;;21.90;20.00;;;4.20;60.10;;;;;;5062522;28;20056;-60
2022/01/16 15:01:23;;;;;;;21.40;19.63;;;4.20;60.30;;;;;;5065777;28;20039;-60
2022/01/16 15:03:48;;;;;;;19.77;18.42;;;4.10;60.40;;;;;;5069902;28;20459;-61
2022/01/16 15:06:14;;;;;;;21.00;19.00;;;4.00;60.40;;;;;;5062412;28;20032;-60
2022/01/16 15:08:44;;;;;;;17.95;16.58;;;4.10;60.60;;;;;;5064351;28;20103;-60
2022/01/16 15:11:11;;;;;;;20.30;18.90;;;4.00;60.20;;;;;;5064680;28;20072;-60
2022/01/16 15:13:38;;;;;;;21.73;20.08;;;3.90;60.10;;;;;;5063922;28;20043;-60
2022/01/16 15:16:04;;;;;;;17.17;16.17;;;3.70;60.10;;;;;;5062322;28;20489;-59
2022/01/16 15:18:31;;;;;;;19.30;18.17;;;3.70;60.10;;;;;;5063208;28;20035;-61
2022/01/16 15:20:58;;;;;;;20.42;18.75;;;3.70;60.30;;;;;;5061235;28;20119;-60
2022/01/16 15:23:25;;;;;;;20.70;18.95;;;3.60;60.10;;;;;;5062296;28;20021;-60
2022/01/16 15:25:52;;;;;;;19.10;17.58;;;3.60;60.30;;;;;;5064027;28;20121;-60
2022/01/16 15:28:19;;;;;;;20.42;18.38;;;3.60;60.30;;;;;;5063196;28;20033;-60
2022/01/16 15:30:47;;;;;;;16.17;15.20;;;3.60;60.10;;;;;;5061947;28;20123;-61
2022/01/16 15:33:13;;;;;;;68.60;33.97;;;3.50;60.00;;;;;;5063669;28;20039;-59
2022/01/16 15:35:40;;;;;;;43.35;33.53;;;3.50;60.10;;;;;;5062526;28;20083;-60
2022/01/16 15:38:10;;;;;;;22.45;20.40;;;3.50;60.10;;;;;;5060766;28;20036;-60
2022/01/16 15:40:36;;;;;;;20.63;19.50;;;3.50;59.90;;;;;;5061878;28;20027;-59
2022/01/16 15:43:07;;;;;;;61.38;39.70;;;3.40;59.80;;;;;;5062426;28;20025;-59
2022/01/16 15:45:33;;;;;;;45.05;32.15;;;3.40;59.40;;;;;;5064078;28;20078;-60
2022/01/16 15:47:59;;;;;;;41.75;27.42;;;3.30;59.20;;;;;;5063757;28;20514;-61
2022/01/16 15:50:26;;;;;;;51.97;34.47;;;3.20;59.00;;;;;;5061930;28;20025;-62
2022/01/16 15:52:52;;;;;;;31.55;26.17;;;3.20;59.00;;;;;;5063507;28;20028;-61
2022/01/16 15:55:19;;;;;;;23.95;21.85;;;3.20;59.40;;;;;;5063114;28;20017;-60
2022/01/16 15:57:49;;;;;;;77.10;49.08;;;3.20;59.40;;;;;;5061476;28;20436;-60
2022/01/16 16:00:26;;;;;;;148.45;78.78;;;3.20;59.50;;;;;;5063056;28;20122;-61
2022/01/16 16:02:54;;;;;;;314.13;158.18;;;3.30;59.50;;;;;;5064039;28;20438;-61
2022/01/16 16:05:21;;;;;;;36.97;33.38;;;3.30;59.50;;;;;;5061903;28;20079;-60
2022/01/16 16:07:48;;;;;;;68.25;49.72;;;3.40;59.70;;;;;;5061544;28;20383;-60
2022/01/16 16:10:15;;;;;;;133.50;72.97;;;3.40;59.60;;;;;;5061871;28;20020;-61
2022/01/16 16:12:43;;;;;;;113.65;64.82;;;3.40;59.50;;;;;;5063350;28;20031;-60
2022/01/16 16:15:09;;;;;;;28.85;26.27;;;3.40;59.40;;;;;;5063025;28;20025;-61
2022/01/16 16:17:35;;;;;;;26.73;24.52;;;3.40;59.50;;;;;;5062313;28;20095;-61
2022/01/16 16:20:01;;;;;;;84.25;53.15;;;3.40;59.50;;;;;;5063035;28;20471;-60
2022/01/16 16:22:26;;;;;;;186.80;106.05;;;3.40;59.40;;;;;;5059479;28;20020;-61
2022/01/16 16:24:53;;;;;;;41.45;36.55;;;3.50;59.50;;;;;;5063291;28;20381;-60
2022/01/16 16:27:20;;;;;;;119.68;77.03;;;3.50;59.30;;;;;;5062643;28;20128;-62
2022/01/16 16:29:48;;;;;;;19.77;18.38;;;3.50;59.30;;;;;;5060035;28;20077;-61
2022/01/16 16:32:16;;;;;;;21.70;19.63;;;3.40;59.40;;;;;;5093093;28;20028;-61
2022/01/16 16:34:42;;;;;;;28.88;26.60;;;3.40;59.50;;;;;;5059620;28;20379;-61
2022/01/16 16:37:07;;;;;;;24.58;22.25;;;3.40;59.60;;;;;;5061292;28;20029;-62
2022/01/16 16:39:33;;;;;;;27.23;24.45;;;3.40;59.70;;;;;;5065773;28;20472;-60
2022/01/16 16:41:59;;;;;;;31.77;29.20;;;3.50;59.70;;;;;;5065586;28;20027;-59
2022/01/16 16:44:27;;;;;;;29.02;26.15;;;3.60;59.80;;;;;;5065104;28;20059;-63
2022/01/16 16:46:58;;;;;;;27.77;25.67;;;3.50;59.70;;;;;;5060087;28;20376;-62
2022/01/16 16:49:25;;;;;;;27.83;25.05;;;3.50;59.70;;;;;;5059862;28;20359;-62
2022/01/16 16:51:52;;;;;;;31.33;28.65;;;3.50;59.70;;;;;;5054001;28;20023;-62
2022/01/16 16:54:17;;;;;;;26.52;23.77;;;3.50;59.80;;;;;;5052747;28;20060;-60
2022/01/16 16:56:43;;;;;;;28.73;26.40;;;3.50;59.80;;;;;;5051729;28;20045;-60
2022/01/16 16:59:09;;;;;;;31.52;28.33;;;3.50;59.80;;;;;;5049884;28;20052;-60
2022/01/16 17:01:35;;;;;;;31.92;28.75;;;3.50;59.80;;;;;;5050060;28;20025;-60
2022/01/16 17:04:01;;;;;;;27.77;25.05;;;3.50;59.90;;;;;;5050062;28;20384;-61
2022/01/16 17:06:27;;;;;;;30.85;27.67;;;3.60;59.90;;;;;;5055734;28;20029;-61
2022/01/16 17:08:53;;;;;;;29.08;26.42;;;3.60;59.70;;;;;;5058170;28;20025;-62
2022/01/16 17:11:19;;;;;;;29.67;26.80;;;3.50;59.70;;;;;;5063672;28;20039;-60
2022/01/16 17:13:50;;;;;;;27.88;24.98;;;3.50;59.70;;;;;;5063374;28;20083;-66
2022/01/16 17:16:17;;;;;;;26.52;24.33;;;3.50;59.70;;;;;;5061496;28;20029;-62
2022/01/16 17:18:45;;;;;;;24.13;21.85;;;3.50;59.80;;;;;;5059706;28;20040;-60
2022/01/16 17:21:11;;;;;;;26.58;23.98;;;3.50;59.90;;;;;;5060386;28;20521;-60
2022/01/16 17:23:38;;;;;;;25.33;22.67;;;3.40;59.90;;;;;;5052000;28;20423;-61
2022/01/16 17:26:05;;;;;;;25.98;22.73;;;3.40;60.00;;;;;;5059483;28;20029;-60
2022/01/16 17:28:31;;;;;;;23.88;22.00;;;3.40;60.10;;;;;;5073376;28;20036;-61
2022/01/16 17:30:57;;;;;;;25.35;23.25;;;3.50;60.10;;;;;;5071821;28;20166;-61
2022/01/16 17:33:23;;;;;;;23.95;21.15;;;3.60;60.00;;;;;;5069865;28;20115;-62
2022/01/16 17:35:49;;;;;;;27.58;24.80;;;3.60;60.00;;;;;;5066160;28;20036;-61
2022/01/16 17:38:16;;;;;;;24.63;22.30;;;3.60;59.90;;;;;;5059490;28;20029;-61
2022/01/16 17:40:42;;;;;;;28.77;26.52;;;3.50;59.90;;;;;;5059298;28;20028;-60
2022/01/16 17:43:08;;;;;;;26.58;24.48;;;3.50;60.00;;;;;;5060386;28;20086;-64
2022/01/16 17:45:34;;;;;;;37.40;33.72;;;3.50;60.00;;;;;;5062534;28;20553;-61
2022/01/16 17:48:00;;;;;;;23.02;20.83;;;3.50;60.10;;;;;;5062572;28;20025;-62
2022/01/16 17:50:26;;;;;;;24.48;22.38;;;3.60;60.10;;;;;;5064467;28;20029;-62
2022/01/16 17:52:52;;;;;;;26.30;23.13;;;3.60;60.00;;;;;;5064298;28;20387;-62
2022/01/16 17:55:20;;;;;;;26.80;24.20;;;3.60;60.00;;;;;;5062488;28;20116;-62
2022/01/16 17:57:50;;;;;;;21.90;19.75;;;3.50;60.00;;;;;;5064446;28;20040;-63
2022/01/16 18:00:17;;;;;;;22.50;20.58;;;3.50;60.10;;;;;;5079609;28;20029;-62
2022/01/16 18:02:43;;;;;;;26.02;23.45;;;3.50;60.20;;;;;;5062965;28;20033;-63
2022/01/16 18:05:09;;;;;;;22.48;20.80;;;3.40;60.20;;;;;;5064212;28;20044;-61
2022/01/16 18:07:37;;;;;;;19.20;17.70;;;3.50;60.30;;;;;;5062539;28;20560;-61